Glenville, WV

11:44 PM EST on March 01, 2015 (GMT -0500)
Benedum | Change Station
CLOSE
Current Station
Airport
Location: Clarksburg,
Elevation: 1204 ft
Nearby Weather Stations

Elev 1204 ft 39.30 °N, 80.23 °W | Updated 51 minutes ago

Overcast
Overcast
40 °F
Feels Like 34 °F
N
9
Wind Variable Wind from West

Today
High -- | Low -- °F
--% Chance of Precip.
Yesterday
High -- | Low -- °F
Precip. -- in
6:56 AM 6:15 PM
Waxing Gibbous, 89% visible
Pressure 30.21 in
Visibility 7.0 miles
Clouds Overcast 800 ft
Windchill 34 °F
Dew Point 38 °F
Humidity 93%
Rainfall 0.55 in
Snow Depth Not available.
UV 0 out of 12
Pollen .80 out of 12
Air Quality Not available.
Flu Activity Not available.
METAR KCKB 020353Z 26008KT 7SM -RA OVC008 04/03 A3020 RMK AO2 SLP229 P0004 T00440033

More Conditions Fewer Conditions

Pressure 30.21 in
Visibility 7.0 miles
Clouds Overcast 800 ft
Windchill 34 °F
Dew Point 38 °F
Humidity 93%
Rainfall 0.55 in
Snow Depth Not available.
UV 0 out of 12
Pollen .80 out of 12
Air Quality Not available.
Flu Activity Not available.
METAR KCKB 020353Z 26008KT 7SM -RA OVC008 04/03 A3020 RMK AO2 SLP229 P0004 T00440033

More Conditions Fewer Conditions

10-Day Weather Forecast

Almanac

Astronomy

Mar. 01, 2015 Rise Set
Actual Time
Civil Twilight
Nautical Twilight
Astronomical Twilight
Moon
Length of Visible Light
Length of Day
Tomorrow will be .
, % of the Moon is Illuminated

Today's Extremes

State Highs State Lows

Community

WunderPhotos

Upload Photos

1,801,725 photos uploaded!

WunderBlogs® & News

Nearby

Air Quality

  Air Quality AQ Index Pollutant
Not available.

Snow Depth

Station Depth Elevation

Earthquake Activity

City Distance Mag. Time & Date
Minimum magnitude displayed is 2.5.

Coastal Water Temperatures

Place Temperature

Nearby Weather Stations